Friesach, Austria
Current Conditions -  °F | °C
As of 3:50 AM on Tuesday 25 Nov 2014 (Local Time) from LOWK Reporting Station
Broken Clouds Broken Clouds  
Wind Chill: 39°   Ceiling: 700
Heat Index: 39°   Visibility: 6mi
Dew Point: 37°   Wind: 2mph
Humidity: 93%   Direction: NA
Pressure: 30.27"   Gusts: NA
Location:  46.95°N, 14.4°E
Report Text: LOWK 250150Z AUTO VRB02KT 9999 BKN007 04/03 Q1025
Loading
Personal Weather Stations






























Interactive Weather Map New forecast layout! Learn more

10-Day Weather Forecast

Advertisements
Track Severe Weather on mobile